createdAt,value
2023-02-04T00:03:38.394Z,0.30
2023-02-04T00:08:41.674Z,0.30
2023-02-04T00:13:46.438Z,0.63
2023-02-04T00:18:49.779Z,0.30
2023-02-04T00:23:53.086Z,0.27
2023-02-04T00:28:57.843Z,0.20
2023-02-04T00:34:01.241Z,0.20
2023-02-04T00:39:04.692Z,0.17
2023-02-04T00:44:09.512Z,0.10
2023-02-04T00:49:12.865Z,0.20
2023-02-04T00:54:16.940Z,0.20
2023-02-04T00:59:21.663Z,0.20
2023-02-04T01:04:25.960Z,0.40
2023-02-04T01:09:29.273Z,1.37
2023-02-04T01:14:33.976Z,0.43
2023-02-04T01:19:37.321Z,0.40
2023-02-04T01:24:40.637Z,0.40
2023-02-04T01:29:45.339Z,0.13
2023-02-04T01:34:48.678Z,0.40
2023-02-04T01:39:51.987Z,0.40
2023-02-04T01:44:56.680Z,0.97
2023-02-04T01:50:00.152Z,0.10
2023-02-04T01:55:04.322Z,0.13
2023-02-04T02:00:16.357Z,0.53
2023-02-04T02:05:22.386Z,0.10
2023-02-04T02:10:26.398Z,0.00
2023-02-04T02:15:31.141Z,0.27
2023-02-04T02:20:34.662Z,0.00
2023-02-04T02:25:39.507Z,0.00
2023-02-04T02:30:45.662Z,0.47
2023-02-04T02:35:49.888Z,0.20
2023-02-04T02:40:54.927Z,0.17
2023-02-04T02:46:01.237Z,0.27
2023-02-04T02:51:05.185Z,0.30
2023-02-04T02:56:11.334Z,0.30
2023-02-04T03:01:14.825Z,0.63
2023-02-04T03:06:21.192Z,0.10
2023-02-04T03:11:29.862Z,1.40
2023-02-04T03:16:36.976Z,0.20
2023-02-04T03:21:40.727Z,0.50
2023-02-04T03:26:45.558Z,0.37
2023-02-04T03:31:49.089Z,0.40
2023-02-04T03:36:52.524Z,0.33
2023-02-04T03:41:57.288Z,1.07
2023-02-04T03:47:00.616Z,0.63
2023-02-04T03:52:03.971Z,0.20
2023-02-04T03:57:08.767Z,0.47
2023-02-04T04:02:12.080Z,0.30
2023-02-04T04:07:15.323Z,0.63
2023-02-04T04:12:20.143Z,0.30
2023-02-04T04:17:23.487Z,0.23
2023-02-04T04:22:26.792Z,0.70
2023-02-04T04:27:31.532Z,0.83
2023-02-04T04:32:34.938Z,0.13
2023-02-04T04:37:38.342Z,0.53
2023-02-04T04:42:43.059Z,0.37
2023-02-04T04:47:46.465Z,1.03
2023-02-04T04:52:49.829Z,0.10
2023-02-04T04:57:54.602Z,1.23
2023-02-04T05:02:57.945Z,1.47
2023-02-04T05:08:01.257Z,3.17
2023-02-04T05:13:05.974Z,0.70
2023-02-04T05:18:09.347Z,0.70
2023-02-04T05:23:12.778Z,1.63
2023-02-04T05:28:17.505Z,0.93
2023-02-04T05:33:20.893Z,1.10
2023-02-04T05:38:24.180Z,0.73
2023-02-04T05:43:28.911Z,1.23
2023-02-04T05:48:32.225Z,1.30
2023-02-04T05:53:35.533Z,1.20
2023-02-04T05:58:40.366Z,1.30
2023-02-04T06:03:43.660Z,1.40
2023-02-04T06:08:46.931Z,0.73
2023-02-04T06:13:51.615Z,0.83
2023-02-04T06:18:55.001Z,0.70
2023-02-04T06:23:58.324Z,0.10
2023-02-04T06:29:03.132Z,0.13
2023-02-04T06:34:06.887Z,0.60
2023-02-04T06:39:10.207Z,1.50
2023-02-04T06:44:14.847Z,3.40
2023-02-04T06:49:18.140Z,2.03
2023-02-04T06:54:21.550Z,1.27
2023-02-04T06:59:29.301Z,1.40
2023-02-04T07:04:32.677Z,1.30
2023-02-04T07:09:35.956Z,0.80
2023-02-04T07:14:40.638Z,2.73
2023-02-04T07:19:43.884Z,2.20
2023-02-04T07:24:47.178Z,2.10
2023-02-04T07:29:51.911Z,3.07
2023-02-04T07:34:55.193Z,2.50
2023-02-04T07:39:58.475Z,2.57
2023-02-04T07:45:03.136Z,3.23
2023-02-04T07:50:07.163Z,5.03
2023-02-04T07:55:10.860Z,5.40
2023-02-04T08:00:16.885Z,2.73
2023-02-04T08:05:20.194Z,7.03
2023-02-04T08:10:23.513Z,5.43
2023-02-04T08:15:28.284Z,3.97
2023-02-04T08:20:31.812Z,2.23
2023-02-04T08:25:45.995Z,2.70
2023-02-04T08:30:50.704Z,3.20
2023-02-04T08:35:54.061Z,4.50
2023-02-04T08:40:57.525Z,2.70
2023-02-04T08:46:02.376Z,1.97
2023-02-04T08:51:06.288Z,4.00
2023-02-04T08:56:10.684Z,1.50
2023-02-04T09:01:15.713Z,0.57
2023-02-04T09:06:19.175Z,2.70
2023-02-04T09:11:23.056Z,2.23
2023-02-04T09:16:27.790Z,2.00
2023-02-04T09:21:31.814Z,1.90
2023-02-04T09:26:35.213Z,2.47
2023-02-04T09:31:40.113Z,2.77
2023-02-04T09:36:43.472Z,2.33
2023-02-04T09:41:46.916Z,2.90
2023-02-04T09:46:54.960Z,2.97
2023-02-04T09:51:58.645Z,2.90
2023-02-04T09:57:02.115Z,2.23
2023-02-04T10:02:21.467Z,2.60
2023-02-04T10:07:26.882Z,2.77
2023-02-04T10:12:32.242Z,2.33
2023-02-04T10:17:37.358Z,5.10
2023-02-04T10:22:41.475Z,1.60
2023-02-04T10:27:52.543Z,3.07
2023-02-04T10:32:57.317Z,4.17
2023-02-04T10:38:08.698Z,3.13
2023-02-04T10:43:13.516Z,2.53
2023-02-04T10:48:20.374Z,2.23
2023-02-04T10:53:42.748Z,3.43
2023-02-04T10:58:46.599Z,2.67
2023-02-04T11:03:52.535Z,4.10
2023-02-04T11:08:56.026Z,2.87
2023-02-04T11:14:04.415Z,2.70
2023-02-04T11:19:16.754Z,2.00
2023-02-04T11:24:29.735Z,2.37
2023-02-04T11:29:38.381Z,1.63
2023-02-04T11:34:53.372Z,1.50
2023-02-04T11:40:00.204Z,2.57
2023-02-04T11:45:10.879Z,1.93
2023-02-04T11:50:20.148Z,2.80
2023-02-04T11:55:23.616Z,1.77
2023-02-04T12:00:30.391Z,1.83
2023-02-04T12:05:47.424Z,3.10
2023-02-04T12:10:52.175Z,4.67
2023-02-04T12:16:00.121Z,3.07
2023-02-04T12:21:06.890Z,2.70
2023-02-04T12:26:10.501Z,3.73
2023-02-04T12:31:14.090Z,3.47
2023-02-04T12:36:19.331Z,2.00
2023-02-04T12:41:22.694Z,4.07
2023-02-04T12:46:26.131Z,2.83
2023-02-04T12:51:30.918Z,1.60
2023-02-04T12:56:34.280Z,2.50
2023-02-04T13:01:37.748Z,2.27
2023-02-04T13:06:42.550Z,2.40
2023-02-04T13:11:45.817Z,2.50
2023-02-04T13:16:49.175Z,4.77
2023-02-04T13:21:54.007Z,2.50
2023-02-04T13:26:57.568Z,3.53
2023-02-04T13:32:01.260Z,3.73
2023-02-04T13:37:06.207Z,2.57
2023-02-04T13:42:09.617Z,2.30
2023-02-04T13:47:13.363Z,2.77
2023-02-04T13:52:19.061Z,2.77
2023-02-04T13:57:23.234Z,3.10
2023-02-04T14:02:26.813Z,1.53
2023-02-04T14:07:33.563Z,3.67
2023-02-04T14:12:37.049Z,3.07
2023-02-04T14:17:40.537Z,3.10
2023-02-04T14:22:45.822Z,1.93
2023-02-04T14:27:49.723Z,2.13
2023-02-04T14:32:53.728Z,2.67
2023-02-04T14:37:58.991Z,1.70
2023-02-04T14:43:02.860Z,2.23
2023-02-04T14:48:07.098Z,3.17
2023-02-04T14:53:12.270Z,1.43
2023-02-04T14:58:16.419Z,1.97
2023-02-04T15:03:19.873Z,4.37
2023-02-04T15:08:27.886Z,2.37
2023-02-04T15:13:31.476Z,2.27
2023-02-04T15:18:35.383Z,2.93
2023-02-04T15:23:40.522Z,2.47
2023-02-04T15:28:44.103Z,1.77
2023-02-04T15:33:47.944Z,3.00
2023-02-04T15:38:52.907Z,4.77
2023-02-04T15:43:56.418Z,2.30
2023-02-04T15:49:00.248Z,2.77
2023-02-04T15:54:05.696Z,4.70
2023-02-04T15:59:09.351Z,5.07
2023-02-04T16:04:13.341Z,2.93
2023-02-04T16:09:18.531Z,3.43
2023-02-04T16:14:22.132Z,2.57
2023-02-04T16:19:25.555Z,3.50
2023-02-04T16:24:31.770Z,2.40
2023-02-04T16:29:35.334Z,2.73
2023-02-04T16:34:39.189Z,4.70
2023-02-04T16:39:45.548Z,5.33
2023-02-04T16:44:49.912Z,27.07
2023-02-04T16:49:55.365Z,34.10
2023-02-04T16:55:01.281Z,26.90
2023-02-04T17:00:07.070Z,28.50
2023-02-04T17:05:11.201Z,121.90
2023-02-04T17:10:16.687Z,29.17
2023-02-04T17:15:20.600Z,74.53
2023-02-04T17:20:24.813Z,100.93
2023-02-04T17:25:29.924Z,41.77
2023-02-04T17:30:33.853Z,6.23
2023-02-04T17:35:37.795Z,7.63
2023-02-04T17:40:44.753Z,3.53
2023-02-04T17:45:49.226Z,3.27
2023-02-04T17:50:53.887Z,2.60
2023-02-04T17:56:00.497Z,2.33
2023-02-04T18:01:07.135Z,2.20
2023-02-04T18:06:21.174Z,3.13
2023-02-04T18:11:28.422Z,3.97
2023-02-04T18:16:35.989Z,2.47
2023-02-04T18:21:41.417Z,4.37
2023-02-04T18:26:48.365Z,2.43
2023-02-04T18:31:56.641Z,2.13
2023-02-04T18:37:02.145Z,3.20
2023-02-04T18:42:15.169Z,2.50
2023-02-04T18:47:31.806Z,5.30
2023-02-04T18:52:38.692Z,2.93
2023-02-04T18:57:44.693Z,3.53
2023-02-04T19:02:53.944Z,2.80
2023-02-04T19:08:15.821Z,2.97
2023-02-04T19:13:29.370Z,2.80
2023-02-04T19:18:39.161Z,2.87
2023-02-04T19:23:43.637Z,3.87
2023-02-04T19:28:50.863Z,3.43
2023-02-04T19:33:55.617Z,3.50
2023-02-04T19:39:01.532Z,3.43
2023-02-04T19:44:37.181Z,2.33
2023-02-04T19:49:41.964Z,3.07
2023-02-04T19:54:45.857Z,2.70
2023-02-04T19:59:56.064Z,3.37
2023-02-04T20:05:02.157Z,4.77
2023-02-04T20:10:25.662Z,3.10
2023-02-04T20:15:31.349Z,3.40
2023-02-04T20:20:38.360Z,3.63
2023-02-04T20:25:45.823Z,3.23
2023-02-04T20:30:53.366Z,3.50
2023-02-04T20:36:26.989Z,3.60
2023-02-04T20:41:38.398Z,3.87
2023-02-04T20:46:43.666Z,3.60
2023-02-04T20:51:48.403Z,4.53
2023-02-04T20:56:51.943Z,3.67
2023-02-04T21:01:58.034Z,4.40
2023-02-04T21:07:04.203Z,5.50
2023-02-04T21:12:08.496Z,4.20
2023-02-04T21:17:13.513Z,3.93
2023-02-04T21:22:17.284Z,4.40
2023-02-04T21:27:22.682Z,4.57
2023-02-04T21:32:28.039Z,4.67
2023-02-04T21:37:32.019Z,4.30
2023-02-04T21:42:36.025Z,3.50
2023-02-04T21:47:40.874Z,4.23
2023-02-04T21:52:45.077Z,3.23
2023-02-04T21:57:49.159Z,5.27
2023-02-04T22:02:54.902Z,4.13
2023-02-04T22:07:59.798Z,4.53
2023-02-04T22:13:20.814Z,3.80
2023-02-04T22:18:25.859Z,3.47
2023-02-04T22:23:29.336Z,3.00
2023-02-04T22:28:32.772Z,3.63
2023-02-04T22:33:37.634Z,4.20
2023-02-04T22:38:41.055Z,4.57
2023-02-04T22:43:44.500Z,3.60
2023-02-04T22:48:49.427Z,4.20
2023-02-04T22:53:52.904Z,4.30
2023-02-04T22:58:56.454Z,3.40
2023-02-04T23:04:01.299Z,3.77
2023-02-04T23:09:05.269Z,3.40
2023-02-04T23:14:08.825Z,3.57
2023-02-04T23:19:13.883Z,4.50
2023-02-04T23:24:17.322Z,4.33
2023-02-04T23:29:20.782Z,4.40
2023-02-04T23:34:26.006Z,3.60
2023-02-04T23:39:29.417Z,5.20
2023-02-04T23:44:32.837Z,5.13
2023-02-04T23:49:37.744Z,4.23
2023-02-04T23:54:41.893Z,3.70
2023-02-04T23:59:45.343Z,4.90
